createdAt,value
2023-05-19T04:31:45.874Z,5.00
2023-05-19T04:34:49.787Z,4.62
2023-05-19T04:37:54.541Z,4.37
2023-05-19T04:40:57.341Z,4.70
2023-05-19T04:44:00.074Z,5.03
2023-05-19T04:47:02.737Z,4.05
2023-05-19T04:50:06.129Z,4.05
2023-05-19T04:53:09.869Z,4.25
2023-05-19T04:56:15.465Z,4.47
2023-05-19T04:59:18.272Z,5.65
2023-05-19T05:02:21.284Z,4.28
2023-05-19T05:05:24.836Z,4.78
2023-05-19T05:08:28.555Z,4.50
2023-05-19T05:11:31.864Z,5.00
2023-05-19T05:14:35.062Z,5.55
2023-05-19T05:17:38.014Z,6.07
2023-05-19T05:20:41.839Z,7.72
2023-05-19T05:23:44.775Z,7.70
2023-05-19T05:26:47.549Z,6.43
2023-05-19T05:29:51.747Z,6.43
2023-05-19T05:32:54.425Z,7.45
2023-05-19T05:35:57.059Z,6.95
2023-05-19T05:38:59.761Z,6.70
2023-05-19T05:42:02.385Z,7.07
2023-05-19T05:45:05.470Z,7.32
2023-05-19T05:48:08.624Z,6.82
2023-05-19T05:51:11.686Z,7.10
2023-05-19T05:54:14.288Z,6.65
2023-05-19T05:57:17.254Z,6.70
2023-05-19T06:00:20.537Z,7.20
2023-05-19T06:03:24.789Z,7.43
2023-05-19T06:06:27.548Z,7.57
2023-05-19T06:09:30.524Z,7.22
2023-05-19T06:12:33.261Z,6.85
2023-05-19T06:15:36.879Z,7.00
2023-05-19T06:18:39.498Z,7.10
2023-05-19T06:21:43.271Z,7.07
2023-05-19T06:24:46.172Z,6.28
2023-05-19T06:27:48.789Z,6.55
2023-05-19T06:30:51.471Z,6.35
2023-05-19T06:33:54.154Z,7.20
2023-05-19T06:36:56.757Z,7.30
2023-05-19T06:39:59.537Z,7.20
2023-05-19T06:43:02.144Z,7.28
2023-05-19T06:46:05.105Z,6.90
2023-05-19T06:49:07.898Z,7.35
2023-05-19T06:52:10.585Z,7.32
2023-05-19T06:55:14.112Z,7.10
2023-05-19T06:58:16.992Z,7.10
2023-05-19T07:01:19.533Z,7.05
2023-05-19T07:04:22.126Z,7.53
2023-05-19T07:07:24.730Z,7.20
2023-05-19T07:10:27.605Z,7.93
2023-05-19T07:13:30.159Z,7.40
2023-05-19T07:16:32.848Z,8.02
2023-05-19T07:19:35.455Z,8.75
2023-05-19T07:22:39.861Z,7.70
2023-05-19T07:25:42.592Z,7.68
2023-05-19T07:28:45.246Z,8.50
2023-05-19T07:31:48.088Z,7.95
2023-05-19T07:34:50.739Z,8.23
2023-05-19T07:37:53.309Z,8.20
2023-05-19T07:40:55.943Z,7.32
2023-05-19T07:43:58.526Z,7.72
2023-05-19T07:47:01.571Z,8.30
2023-05-19T07:50:04.568Z,8.50
2023-05-19T07:53:07.283Z,7.93
2023-05-19T07:56:09.951Z,8.55
2023-05-19T07:59:13.420Z,7.55
2023-05-19T08:02:16.250Z,7.85
2023-05-19T08:05:19.016Z,8.10
2023-05-19T08:08:22.085Z,8.80
2023-05-19T08:11:24.718Z,7.97
2023-05-19T08:14:27.596Z,8.55
2023-05-19T08:17:30.211Z,8.15
2023-05-19T08:20:33.052Z,7.85
2023-05-19T08:23:37.937Z,8.25
2023-05-19T08:26:41.006Z,8.20
2023-05-19T08:29:43.756Z,6.72
2023-05-19T08:32:46.601Z,7.28
2023-05-19T08:35:49.145Z,6.35
2023-05-19T08:38:51.803Z,6.93
2023-05-19T08:41:54.738Z,6.72
2023-05-19T08:44:57.670Z,6.97
2023-05-19T08:48:00.748Z,6.22
2023-05-19T08:51:14.157Z,6.82
2023-05-19T08:54:20.025Z,7.15
2023-05-19T08:57:23.861Z,6.65
2023-05-19T09:00:26.620Z,6.70
2023-05-19T09:03:29.555Z,5.95
2023-05-19T09:06:32.572Z,6.62
2023-05-19T09:09:35.107Z,5.82
2023-05-19T09:12:38.280Z,6.75
2023-05-19T09:15:43.667Z,6.28
2023-05-19T09:18:57.135Z,6.78
2023-05-19T09:22:03.497Z,5.90
2023-05-19T09:25:06.554Z,6.15
2023-05-19T09:28:09.224Z,6.22
2023-05-19T09:31:11.818Z,5.87
2023-05-19T09:34:14.553Z,5.00
2023-05-19T09:37:17.269Z,5.35
2023-05-19T09:40:19.984Z,4.90
2023-05-19T09:43:22.857Z,5.80
2023-05-19T09:46:28.566Z,5.53
2023-05-19T09:49:32.933Z,5.20
2023-05-19T09:52:37.307Z,5.43
2023-05-19T09:55:39.858Z,5.37
2023-05-19T09:58:42.765Z,5.28
2023-05-19T10:01:46.950Z,4.93
2023-05-19T10:04:49.646Z,4.57
2023-05-19T10:07:54.674Z,5.22
2023-05-19T10:10:57.305Z,4.50
2023-05-19T10:14:00.080Z,4.25
2023-05-19T10:17:02.889Z,4.22
2023-05-19T10:20:10.406Z,4.25
2023-05-19T10:23:13.975Z,5.00
2023-05-19T10:26:16.552Z,5.32
2023-05-19T10:29:22.090Z,3.97
2023-05-19T10:32:27.141Z,3.95
2023-05-19T10:35:52.154Z,4.03
2023-05-19T10:39:08.528Z,4.12
2023-05-19T10:42:19.776Z,4.45
2023-05-19T10:45:23.188Z,3.78
2023-05-19T10:48:26.509Z,3.80
2023-05-19T10:51:31.948Z,3.45
2023-05-19T10:54:48.064Z,4.00
2023-05-19T10:57:57.183Z,3.10
2023-05-19T11:01:02.654Z,3.75
2023-05-19T11:04:14.305Z,2.87
2023-05-19T11:07:21.933Z,2.80
2023-05-19T11:10:25.026Z,3.42
2023-05-19T11:16:32.852Z,2.67
2023-05-19T11:19:35.781Z,3.37
2023-05-19T11:22:39.067Z,3.10
2023-05-19T11:25:45.390Z,2.65
2023-05-19T11:28:48.087Z,2.70
2023-05-19T11:31:52.058Z,2.70
2023-05-19T11:34:56.172Z,2.30
2023-05-19T11:37:59.533Z,2.50
2023-05-19T11:41:02.429Z,2.05
2023-05-19T11:44:09.840Z,2.72
2023-05-19T11:47:13.513Z,2.30
2023-05-19T11:50:16.322Z,2.83
2023-05-19T11:53:20.075Z,2.10
2023-05-19T11:56:22.930Z,2.65
2023-05-19T11:59:36.220Z,2.42
2023-05-19T12:02:39.195Z,2.60
2023-05-19T12:05:46.049Z,2.53
2023-05-19T12:08:51.766Z,2.50
2023-05-19T12:11:54.660Z,2.20
2023-05-19T12:14:57.226Z,2.08
2023-05-19T12:18:01.853Z,2.40
2023-05-19T12:21:05.095Z,2.47
2023-05-19T12:24:07.670Z,2.60
2023-05-19T12:27:12.626Z,2.40
2023-05-19T12:33:17.782Z,2.12
2023-05-19T12:36:20.428Z,2.60
2023-05-19T12:39:23.463Z,2.60
2023-05-19T12:42:31.806Z,2.47
2023-05-19T12:45:38.904Z,2.35
2023-05-19T12:48:44.356Z,2.10
2023-05-19T12:51:54.078Z,2.35
2023-05-19T12:55:01.347Z,2.45
2023-05-19T12:58:06.097Z,2.35
2023-05-19T13:01:15.585Z,2.50
2023-05-19T13:04:18.377Z,2.50
2023-05-19T13:07:21.248Z,2.58
2023-05-19T13:10:23.982Z,2.42
2023-05-19T13:13:26.667Z,2.40
2023-05-19T13:16:29.598Z,2.50
2023-05-19T13:19:32.694Z,2.20
2023-05-19T13:22:35.475Z,2.55
2023-05-19T13:25:38.238Z,2.55
2023-05-19T13:28:40.988Z,2.22
2023-05-19T13:31:43.678Z,3.08
2023-05-19T13:34:46.355Z,2.50
2023-05-19T13:37:49.663Z,2.37
2023-05-19T13:40:52.227Z,2.45
2023-05-19T13:43:54.985Z,2.50
2023-05-19T13:46:57.673Z,3.15
2023-05-19T13:50:00.527Z,2.47
2023-05-19T13:53:03.924Z,2.50
2023-05-19T13:56:06.682Z,2.70
2023-05-19T13:59:09.343Z,2.50
2023-05-19T14:02:11.973Z,2.37
2023-05-19T14:05:14.630Z,2.78
2023-05-19T14:08:17.537Z,2.55
2023-05-19T14:11:20.353Z,2.80
2023-05-19T14:14:23.056Z,2.70
2023-05-19T14:17:27.564Z,2.65
2023-05-19T14:20:30.250Z,2.90
2023-05-19T14:23:32.919Z,3.05
2023-05-19T14:26:35.545Z,2.55
2023-05-19T14:29:38.323Z,2.67
2023-05-19T14:32:41.010Z,2.97
2023-05-19T14:35:43.740Z,3.03
2023-05-19T14:38:46.355Z,3.00
2023-05-19T14:41:51.125Z,3.12
2023-05-19T14:44:53.847Z,3.03
2023-05-19T14:47:56.550Z,2.85
2023-05-19T14:50:59.148Z,3.08
2023-05-19T14:54:02.487Z,3.03
2023-05-19T14:57:07.374Z,3.17
2023-05-19T15:03:13.166Z,2.78
2023-05-19T15:06:15.856Z,2.85
2023-05-19T15:09:18.451Z,3.28
2023-05-19T15:12:21.053Z,2.78
2023-05-19T15:15:23.750Z,2.90
2023-05-19T15:18:26.408Z,2.87
2023-05-19T15:21:29.020Z,2.90
2023-05-19T15:24:31.631Z,2.97
2023-05-19T15:27:36.465Z,3.30
2023-05-19T15:30:40.107Z,2.60
2023-05-19T15:33:42.736Z,2.80
2023-05-19T15:36:45.279Z,3.28
2023-05-19T15:39:48.101Z,3.37
2023-05-19T15:42:50.666Z,3.20
2023-05-19T15:45:55.253Z,3.00
2023-05-19T15:48:57.925Z,2.80
2023-05-19T15:52:00.478Z,3.10
2023-05-19T15:55:03.136Z,3.95
2023-05-19T15:58:05.803Z,3.22
2023-05-19T16:01:08.504Z,3.53
2023-05-19T16:04:11.269Z,3.12
2023-05-19T16:07:13.947Z,3.53
2023-05-19T16:10:16.703Z,3.15
2023-05-19T16:13:19.274Z,3.20
